createdAt,value
2023-05-07T00:02:08.509Z,13.83
2023-05-07T00:04:38.526Z,13.85
2023-05-07T00:07:05.442Z,13.81
2023-05-07T00:09:42.208Z,13.78
2023-05-07T00:12:08.647Z,13.73
2023-05-07T00:14:35.210Z,13.65
2023-05-07T00:17:01.708Z,13.72
2023-05-07T00:19:41.352Z,13.70
2023-05-07T00:22:09.123Z,13.53
2023-05-07T00:24:35.631Z,13.54
2023-05-07T00:27:02.102Z,13.56
2023-05-07T00:29:28.662Z,13.45
2023-05-07T00:31:57.133Z,13.42
2023-05-07T00:34:23.710Z,13.41
2023-05-07T00:36:50.228Z,13.51
2023-05-07T00:39:22.586Z,13.39
2023-05-07T00:41:49.061Z,13.24
2023-05-07T00:44:19.677Z,13.30
2023-05-07T00:46:46.403Z,13.24
2023-05-07T00:49:14.024Z,13.24
2023-05-07T00:51:40.501Z,13.23
2023-05-07T00:54:07.042Z,13.21
2023-05-07T00:56:33.862Z,13.17
2023-05-07T00:59:09.070Z,13.13
2023-05-07T01:01:35.885Z,13.02
2023-05-07T01:04:02.757Z,13.08
2023-05-07T01:06:31.207Z,13.06
2023-05-07T01:08:59.356Z,13.08
2023-05-07T01:11:26.565Z,12.98
2023-05-07T01:14:00.287Z,12.99
2023-05-07T01:16:27.867Z,13.02
2023-05-07T01:18:54.404Z,12.97
2023-05-07T01:21:27.497Z,12.96
2023-05-07T01:23:55.801Z,13.06
2023-05-07T01:26:23.140Z,12.94
2023-05-07T01:28:49.596Z,13.00
2023-05-07T01:31:18.113Z,12.90
2023-05-07T01:33:46.361Z,12.82
2023-05-07T01:36:14.339Z,12.80
2023-05-07T01:38:43.406Z,12.74
2023-05-07T01:41:10.007Z,12.73
2023-05-07T01:43:36.493Z,12.75
2023-05-07T01:46:03.976Z,12.63
2023-05-07T01:48:32.072Z,12.50
2023-05-07T01:50:59.217Z,12.47
2023-05-07T01:53:28.649Z,12.47
2023-05-07T01:55:55.272Z,12.38
2023-05-07T01:58:22.048Z,12.55
2023-05-07T02:00:58.573Z,12.47
2023-05-07T02:03:25.161Z,12.36
2023-05-07T02:05:51.666Z,12.33
2023-05-07T02:08:19.221Z,12.33
2023-05-07T02:10:45.659Z,12.38
2023-05-07T02:13:12.118Z,12.42
2023-05-07T02:15:38.632Z,12.36
2023-05-07T02:18:10.222Z,12.40
2023-05-07T02:20:39.974Z,12.34
2023-05-07T02:23:06.417Z,12.20
2023-05-07T02:25:33.944Z,12.24
2023-05-07T02:28:00.501Z,12.14
2023-05-07T02:30:27.132Z,12.13
2023-05-07T02:33:04.741Z,12.15
2023-05-07T02:35:31.448Z,12.20
2023-05-07T02:37:57.905Z,12.31
2023-05-07T02:40:24.396Z,12.36
2023-05-07T02:42:50.857Z,12.24
2023-05-07T02:45:17.402Z,12.27
2023-05-07T02:47:43.882Z,12.32
2023-05-07T02:50:16.510Z,12.39
2023-05-07T02:52:42.999Z,12.32
2023-05-07T02:55:09.800Z,12.36
2023-05-07T02:57:36.313Z,12.30
2023-05-07T03:00:20.298Z,12.30
2023-05-07T03:02:46.895Z,12.26
2023-05-07T03:05:13.707Z,12.25
2023-05-07T03:07:40.379Z,12.24
2023-05-07T03:10:07.551Z,12.27
2023-05-07T03:12:34.184Z,12.28
2023-05-07T03:15:00.674Z,12.24
2023-05-07T03:17:27.273Z,12.37
2023-05-07T03:19:53.875Z,12.42
2023-05-07T03:22:20.458Z,12.29
2023-05-07T03:24:50.905Z,12.34
2023-05-07T03:27:17.415Z,12.24
2023-05-07T03:29:51.880Z,12.24
2023-05-07T03:32:18.424Z,12.25
2023-05-07T03:34:44.982Z,12.14
2023-05-07T03:37:11.487Z,12.21
2023-05-07T03:39:39.064Z,12.16
2023-05-07T03:42:05.661Z,12.08
2023-05-07T03:44:37.125Z,11.99
2023-05-07T03:47:04.940Z,11.95
2023-05-07T03:49:31.408Z,11.87
2023-05-07T03:52:03.990Z,11.98
2023-05-07T03:54:31.468Z,12.10
2023-05-07T03:56:57.930Z,12.01
2023-05-07T03:59:24.436Z,12.06
2023-05-07T04:01:51.111Z,12.05
2023-05-07T04:04:17.777Z,12.14
2023-05-07T04:06:44.329Z,12.20
2023-05-07T04:09:11.270Z,12.24
2023-05-07T04:11:37.786Z,12.25
2023-05-07T04:14:04.239Z,12.28
2023-05-07T04:16:32.893Z,12.40
2023-05-07T04:18:59.406Z,12.38
2023-05-07T04:21:26.852Z,12.33
2023-05-07T04:23:53.399Z,12.41
2023-05-07T04:26:19.945Z,12.40
2023-05-07T04:28:46.644Z,12.41
2023-05-07T04:31:13.082Z,12.59
2023-05-07T04:33:39.583Z,12.55
2023-05-07T04:36:06.222Z,12.67
2023-05-07T04:38:34.830Z,12.95
2023-05-07T04:41:06.327Z,13.22
2023-05-07T04:43:33.050Z,13.44
2023-05-07T04:45:59.953Z,13.44
2023-05-07T04:48:27.492Z,13.61
2023-05-07T04:50:54.071Z,13.60
2023-05-07T04:53:21.105Z,13.62
2023-05-07T04:55:47.793Z,13.61
2023-05-07T04:58:16.748Z,13.65
2023-05-07T05:00:43.556Z,13.73
2023-05-07T05:03:17.013Z,13.70
2023-05-07T05:05:43.532Z,13.97
2023-05-07T05:08:10.087Z,14.59
2023-05-07T05:10:36.547Z,15.17
2023-05-07T05:13:03.087Z,15.46
2023-05-07T05:15:33.758Z,15.74
2023-05-07T05:18:00.603Z,16.03
2023-05-07T05:20:27.335Z,16.01
2023-05-07T05:22:53.833Z,15.99
2023-05-07T05:25:20.592Z,15.90
2023-05-07T05:27:47.108Z,16.48
2023-05-07T05:30:14.078Z,16.82
2023-05-07T05:32:40.629Z,16.48
2023-05-07T05:35:07.857Z,16.24
2023-05-07T05:37:34.758Z,16.43
2023-05-07T05:40:01.244Z,16.24
2023-05-07T05:42:31.708Z,16.61
2023-05-07T05:44:58.157Z,16.71
2023-05-07T05:47:24.685Z,16.47
2023-05-07T05:49:51.122Z,16.63
2023-05-07T05:52:18.214Z,16.61
2023-05-07T05:54:44.710Z,16.75
2023-05-07T05:57:11.883Z,16.77
2023-05-07T05:59:38.451Z,16.50
2023-05-07T06:02:05.051Z,16.64
2023-05-07T06:04:33.554Z,16.84
2023-05-07T06:07:00.058Z,16.56
2023-05-07T06:09:26.702Z,16.56
2023-05-07T06:11:53.308Z,16.47
2023-05-07T06:14:25.906Z,16.58
2023-05-07T06:16:52.404Z,16.90
2023-05-07T06:19:24.047Z,17.00
2023-05-07T06:21:50.760Z,17.00
2023-05-07T06:24:22.358Z,17.23
2023-05-07T06:26:48.910Z,16.88
2023-05-07T06:29:16.439Z,17.39
2023-05-07T06:31:44.015Z,17.54
2023-05-07T06:34:11.227Z,17.61
2023-05-07T06:36:37.737Z,17.84
2023-05-07T06:39:04.176Z,18.18
2023-05-07T06:41:30.609Z,17.96
2023-05-07T06:43:57.087Z,17.80
2023-05-07T06:46:23.672Z,17.50
2023-05-07T06:48:50.208Z,18.21
2023-05-07T06:51:16.639Z,18.43
2023-05-07T06:53:45.167Z,18.76
2023-05-07T06:56:11.866Z,18.67
2023-05-07T06:58:46.272Z,18.67
2023-05-07T07:01:12.737Z,19.02
2023-05-07T07:03:41.494Z,18.94
2023-05-07T07:06:08.040Z,18.30
2023-05-07T07:08:35.597Z,18.86
2023-05-07T07:11:02.079Z,19.25
2023-05-07T07:13:34.637Z,19.68
2023-05-07T07:16:01.563Z,19.75
2023-05-07T07:18:28.428Z,19.66
2023-05-07T07:20:54.870Z,20.04
2023-05-07T07:23:21.567Z,20.35
2023-05-07T07:25:49.856Z,20.00
2023-05-07T07:28:17.346Z,20.13
2023-05-07T07:30:51.818Z,20.13
2023-05-07T07:33:18.284Z,20.06
2023-05-07T07:35:44.750Z,20.23
2023-05-07T07:38:11.312Z,19.73
2023-05-07T07:40:38.140Z,19.37
2023-05-07T07:43:04.671Z,19.78
2023-05-07T07:45:38.178Z,19.84
2023-05-07T07:48:05.644Z,20.17
2023-05-07T07:50:44.586Z,20.66
2023-05-07T07:53:12.436Z,20.65
2023-05-07T07:55:42.132Z,20.40
2023-05-07T07:58:10.720Z,20.38
2023-05-07T08:00:37.553Z,20.13
2023-05-07T08:03:04.455Z,20.07
2023-05-07T08:05:31.262Z,20.13
2023-05-07T08:07:57.771Z,20.66
2023-05-07T08:10:24.332Z,20.59
2023-05-07T08:12:51.453Z,20.69
2023-05-07T08:15:19.116Z,20.46
2023-05-07T08:17:45.629Z,20.18
2023-05-07T08:20:13.411Z,20.12
2023-05-07T08:22:45.240Z,20.14
2023-05-07T08:25:13.756Z,20.04
2023-05-07T08:27:40.280Z,20.26
2023-05-07T08:30:07.440Z,20.93
2023-05-07T08:32:33.989Z,21.00
2023-05-07T08:35:01.004Z,20.83
2023-05-07T08:37:28.598Z,21.22
2023-05-07T08:39:55.051Z,20.78
2023-05-07T08:42:25.976Z,20.48
2023-05-07T08:44:56.634Z,20.54
2023-05-07T08:47:31.260Z,20.40
2023-05-07T08:49:57.829Z,19.97
2023-05-07T08:52:24.360Z,19.83
2023-05-07T08:54:51.142Z,20.16
2023-05-07T08:57:17.661Z,20.12
2023-05-07T08:59:44.176Z,19.81
2023-05-07T09:02:12.380Z,19.88
2023-05-07T09:04:39.092Z,20.05
2023-05-07T09:07:06.429Z,20.10
2023-05-07T09:09:36.041Z,20.29
2023-05-07T09:12:03.237Z,20.90
2023-05-07T09:14:32.746Z,21.11
2023-05-07T09:17:05.367Z,21.31
2023-05-07T09:19:32.104Z,21.83
2023-05-07T09:22:00.953Z,21.42
2023-05-07T09:24:29.560Z,22.01
2023-05-07T09:27:03.311Z,21.57
2023-05-07T09:29:44.781Z,21.31
2023-05-07T09:32:11.771Z,21.44
2023-05-07T09:34:38.359Z,20.81
2023-05-07T09:37:06.394Z,21.47
2023-05-07T09:39:47.237Z,21.81
2023-05-07T09:42:17.789Z,21.84
2023-05-07T09:44:44.811Z,22.15
2023-05-07T09:47:12.785Z,22.50
2023-05-07T09:49:41.070Z,21.75
2023-05-07T09:52:09.744Z,22.02
2023-05-07T09:54:38.870Z,22.08
2023-05-07T09:57:08.014Z,21.86
2023-05-07T09:59:36.044Z,21.53
2023-05-07T10:02:05.224Z,21.67
2023-05-07T10:04:33.061Z,21.39
2023-05-07T10:07:00.801Z,21.97
2023-05-07T10:09:27.918Z,22.14
2023-05-07T10:12:00.708Z,22.00
2023-05-07T10:14:28.962Z,22.01
2023-05-07T10:16:57.390Z,22.21
2023-05-07T10:19:25.154Z,22.76
2023-05-07T10:22:03.046Z,22.91
2023-05-07T10:24:37.766Z,23.25
2023-05-07T10:27:15.399Z,23.32
2023-05-07T10:29:45.872Z,23.23
2023-05-07T10:32:38.062Z,23.08
2023-05-07T10:35:07.916Z,22.64
2023-05-07T10:37:35.294Z,23.21
2023-05-07T10:40:02.494Z,22.89
2023-05-07T10:42:29.143Z,23.15
2023-05-07T10:44:55.879Z,23.17
2023-05-07T10:47:22.444Z,22.60
2023-05-07T10:49:48.900Z,22.38
2023-05-07T10:52:22.652Z,22.63
2023-05-07T10:55:18.717Z,22.15
2023-05-07T10:57:45.405Z,22.33
2023-05-07T11:00:16.856Z,22.86
2023-05-07T11:03:00.489Z,22.95
2023-05-07T11:05:30.183Z,23.27
2023-05-07T11:08:04.497Z,23.32
2023-05-07T11:10:59.350Z,22.87
2023-05-07T11:13:46.366Z,22.80
2023-05-07T11:16:25.719Z,23.43
2023-05-07T11:18:54.975Z,23.39
2023-05-07T11:21:41.737Z,23.41
2023-05-07T11:24:11.353Z,23.04
2023-05-07T11:26:48.221Z,22.70
2023-05-07T11:29:23.370Z,22.96
2023-05-07T11:31:56.158Z,22.66
2023-05-07T11:34:27.810Z,22.92
2023-05-07T11:36:56.841Z,22.91
2023-05-07T11:39:29.476Z,22.89
2023-05-07T11:41:57.057Z,22.99
2023-05-07T11:44:23.544Z,23.17
2023-05-07T11:46:50.103Z,23.06
2023-05-07T11:49:21.757Z,23.26
2023-05-07T11:51:48.412Z,23.11
2023-05-07T11:54:18.713Z,22.66
2023-05-07T11:56:46.060Z,22.74
2023-05-07T11:59:12.588Z,22.74
2023-05-07T12:01:39.288Z,23.06
2023-05-07T12:04:06.462Z,23.04
2023-05-07T12:06:37.713Z,23.00
2023-05-07T12:09:12.549Z,23.29
2023-05-07T12:11:46.929Z,23.41
2023-05-07T12:14:13.380Z,23.24
2023-05-07T12:16:41.817Z,23.33
2023-05-07T12:19:09.970Z,22.79
2023-05-07T12:21:43.626Z,23.26
2023-05-07T12:24:10.067Z,23.50
2023-05-07T12:26:42.392Z,23.06
2023-05-07T12:29:09.070Z,23.05
2023-05-07T12:31:36.661Z,23.14
2023-05-07T12:34:03.549Z,23.17
2023-05-07T12:36:39.098Z,23.30
2023-05-07T12:39:07.027Z,23.21
2023-05-07T12:42:02.741Z,23.25
2023-05-07T12:44:33.683Z,23.14
2023-05-07T12:47:03.279Z,22.91
2023-05-07T12:49:30.951Z,22.78
2023-05-07T12:51:57.536Z,23.30
2023-05-07T12:54:42.212Z,22.83
2023-05-07T12:57:10.578Z,22.94
2023-05-07T12:59:41.599Z,23.54
2023-05-07T13:02:09.243Z,23.42
2023-05-07T13:04:36.642Z,23.32
2023-05-07T13:07:03.590Z,23.36
2023-05-07T13:09:30.431Z,23.42
2023-05-07T13:11:56.902Z,23.33
2023-05-07T13:14:23.387Z,23.38
2023-05-07T13:16:50.933Z,23.19
2023-05-07T13:19:18.466Z,23.30
2023-05-07T13:21:44.946Z,23.12
2023-05-07T13:24:11.446Z,23.10
2023-05-07T13:26:37.982Z,23.00
2023-05-07T13:29:04.443Z,23.15
2023-05-07T13:31:31.121Z,23.11
2023-05-07T13:33:59.716Z,22.93
2023-05-07T13:36:26.411Z,22.99
2023-05-07T13:39:00.545Z,23.14
2023-05-07T13:41:27.098Z,23.09
2023-05-07T13:43:53.552Z,23.26
2023-05-07T13:46:20.119Z,23.20
2023-05-07T13:48:46.698Z,23.24
2023-05-07T13:51:13.211Z,23.15
2023-05-07T13:53:40.191Z,23.07
2023-05-07T13:56:06.842Z,23.05
2023-05-07T13:58:33.596Z,23.18
2023-05-07T14:01:00.562Z,23.02
2023-05-07T14:03:27.191Z,23.06
2023-05-07T14:05:53.842Z,22.99
2023-05-07T14:08:20.924Z,23.17
2023-05-07T14:10:47.656Z,23.14
2023-05-07T14:13:14.168Z,22.97
2023-05-07T14:15:41.350Z,22.85
2023-05-07T14:18:08.032Z,22.97
2023-05-07T14:20:37.661Z,22.87
2023-05-07T14:23:04.220Z,22.87
2023-05-07T14:25:30.865Z,22.99
2023-05-07T14:28:03.397Z,23.26
2023-05-07T14:30:29.880Z,23.04
2023-05-07T14:32:56.376Z,22.88
2023-05-07T14:35:24.943Z,22.97
2023-05-07T14:37:51.514Z,22.78
2023-05-07T14:40:18.016Z,22.97
2023-05-07T14:42:44.684Z,22.86
2023-05-07T14:45:11.702Z,22.93
2023-05-07T14:47:43.524Z,22.97
2023-05-07T14:50:10.268Z,23.01
2023-05-07T14:52:36.771Z,22.68
2023-05-07T14:55:04.967Z,22.72
2023-05-07T14:57:35.719Z,22.75
2023-05-07T15:00:09.790Z,22.62
2023-05-07T15:02:36.471Z,22.52
2023-05-07T15:05:03.008Z,22.65
2023-05-07T15:07:29.477Z,22.23
2023-05-07T15:09:56.180Z,22.47
2023-05-07T15:12:22.660Z,22.54
2023-05-07T15:14:49.171Z,22.52
2023-05-07T15:17:16.112Z,22.11
2023-05-07T15:19:43.540Z,22.44
2023-05-07T15:22:10.002Z,22.41
2023-05-07T15:24:36.464Z,22.45
2023-05-07T15:27:04.054Z,22.19
2023-05-07T15:29:30.528Z,21.91
2023-05-07T15:32:05.165Z,22.11
2023-05-07T15:34:40.466Z,22.07
2023-05-07T15:37:08.223Z,22.00
2023-05-07T15:39:35.744Z,21.79
2023-05-07T15:42:03.684Z,21.79
2023-05-07T15:44:40.544Z,21.72
2023-05-07T15:47:07.026Z,21.94
2023-05-07T15:49:33.552Z,21.89
2023-05-07T15:52:00.114Z,21.81
2023-05-07T15:54:26.678Z,21.73
2023-05-07T15:56:53.118Z,21.66
2023-05-07T15:59:21.736Z,22.00
2023-05-07T16:01:48.335Z,21.86
2023-05-07T16:04:15.173Z,21.54
2023-05-07T16:06:41.733Z,21.42
2023-05-07T16:09:10.333Z,21.18
2023-05-07T16:11:36.844Z,21.25
2023-05-07T16:14:10.279Z,21.32
2023-05-07T16:16:49.167Z,21.51
2023-05-07T16:19:15.890Z,21.24
2023-05-07T16:21:42.343Z,21.13
2023-05-07T16:24:15.048Z,21.06
2023-05-07T16:26:41.513Z,20.65
2023-05-07T16:29:08.414Z,20.43
2023-05-07T16:31:38.190Z,20.67
2023-05-07T16:34:05.850Z,20.55
2023-05-07T16:36:38.263Z,20.61
2023-05-07T16:39:04.797Z,20.66
2023-05-07T16:41:37.869Z,20.23
2023-05-07T16:44:04.510Z,20.42
2023-05-07T16:46:32.012Z,20.24
2023-05-07T16:48:58.494Z,20.42
2023-05-07T16:51:36.216Z,20.16
2023-05-07T16:54:03.148Z,20.06
2023-05-07T16:56:29.677Z,19.96
2023-05-07T16:58:56.101Z,20.01
2023-05-07T17:01:22.709Z,19.77
2023-05-07T17:03:49.287Z,19.96
2023-05-07T17:06:17.884Z,20.04
2023-05-07T17:08:45.428Z,19.81
2023-05-07T17:11:13.886Z,19.63
2023-05-07T17:13:43.916Z,19.37
2023-05-07T17:16:10.432Z,19.48
2023-05-07T17:18:37.092Z,19.24
2023-05-07T17:21:09.987Z,19.11
2023-05-07T17:23:36.493Z,19.10
2023-05-07T17:26:03.053Z,19.05
2023-05-07T17:28:30.583Z,18.86
2023-05-07T17:30:59.085Z,18.72
2023-05-07T17:33:25.868Z,18.36
2023-05-07T17:35:54.638Z,18.88
2023-05-07T17:38:21.126Z,18.57
2023-05-07T17:40:48.439Z,18.48
2023-05-07T17:43:15.683Z,18.49
2023-05-07T17:45:42.175Z,18.65
2023-05-07T17:48:09.774Z,18.47
2023-05-07T17:50:37.287Z,18.52
2023-05-07T17:53:05.816Z,18.16
2023-05-07T17:55:40.323Z,18.20
2023-05-07T17:58:07.210Z,18.28
2023-05-07T18:00:33.686Z,17.92
2023-05-07T18:03:01.636Z,17.94
2023-05-07T18:05:28.922Z,18.25
2023-05-07T18:07:57.411Z,17.99
2023-05-07T18:10:24.143Z,17.82
2023-05-07T18:12:52.788Z,17.78
2023-05-07T18:15:19.453Z,17.76
2023-05-07T18:17:50.207Z,17.90
2023-05-07T18:20:16.772Z,17.58
2023-05-07T18:22:43.239Z,17.57
2023-05-07T18:25:10.006Z,17.45
2023-05-07T18:27:38.618Z,17.61
2023-05-07T18:30:05.786Z,17.38
2023-05-07T18:32:32.366Z,17.34
2023-05-07T18:34:59.004Z,17.15
2023-05-07T18:37:26.818Z,17.03
2023-05-07T18:39:54.401Z,16.67
2023-05-07T18:42:20.928Z,16.83
2023-05-07T18:44:47.370Z,16.85
2023-05-07T18:47:13.957Z,16.66
2023-05-07T18:49:40.539Z,16.50
2023-05-07T18:52:07.093Z,16.60
2023-05-07T18:54:34.550Z,16.65
2023-05-07T18:57:01.033Z,16.54
2023-05-07T18:59:27.557Z,16.35
2023-05-07T19:01:56.318Z,16.46
2023-05-07T19:04:24.417Z,16.19
2023-05-07T19:06:51.098Z,15.99
2023-05-07T19:09:18.971Z,16.18
2023-05-07T19:11:46.586Z,16.22
2023-05-07T19:14:13.034Z,16.23
2023-05-07T19:16:41.579Z,15.85
2023-05-07T19:19:08.368Z,15.94
2023-05-07T19:21:41.058Z,15.90
2023-05-07T19:24:08.202Z,15.96
2023-05-07T19:26:34.721Z,15.71
2023-05-07T19:29:16.559Z,15.77
2023-05-07T19:31:46.324Z,15.88
2023-05-07T19:34:15.421Z,15.52
2023-05-07T19:36:42.182Z,15.68
2023-05-07T19:39:08.731Z,15.69
2023-05-07T19:41:35.282Z,15.62
2023-05-07T19:44:02.034Z,15.45
2023-05-07T19:46:28.931Z,15.41
2023-05-07T19:49:01.338Z,15.45
2023-05-07T19:51:32.298Z,15.11
2023-05-07T19:54:00.011Z,15.24
2023-05-07T19:56:26.553Z,15.35
2023-05-07T19:58:53.054Z,15.10
2023-05-07T20:01:19.640Z,15.33
2023-05-07T20:03:46.557Z,15.22
2023-05-07T20:06:13.557Z,15.31
2023-05-07T20:08:40.248Z,15.09
2023-05-07T20:11:14.190Z,14.94
2023-05-07T20:13:41.187Z,15.12
2023-05-07T20:16:09.856Z,14.88
2023-05-07T20:18:37.423Z,14.86
2023-05-07T20:21:04.924Z,14.87
2023-05-07T20:23:31.511Z,14.86
2023-05-07T20:25:58.191Z,14.89
2023-05-07T20:28:25.077Z,14.50
2023-05-07T20:30:51.600Z,14.76
2023-05-07T20:33:18.213Z,14.70
2023-05-07T20:35:45.092Z,14.68
2023-05-07T20:38:11.743Z,14.43
2023-05-07T20:40:38.344Z,14.58
2023-05-07T20:43:08.822Z,14.63
2023-05-07T20:45:35.527Z,14.54
2023-05-07T20:48:14.460Z,14.56
2023-05-07T20:50:41.124Z,14.52
2023-05-07T20:53:07.643Z,14.49
2023-05-07T20:55:34.159Z,14.32
2023-05-07T20:58:01.057Z,14.44
2023-05-07T21:00:27.906Z,14.30
2023-05-07T21:02:54.428Z,14.08
2023-05-07T21:05:21.093Z,14.14
2023-05-07T21:07:47.555Z,14.01
2023-05-07T21:10:14.212Z,14.21
2023-05-07T21:12:40.947Z,14.17
2023-05-07T21:15:08.153Z,14.12
2023-05-07T21:17:35.276Z,14.02
2023-05-07T21:20:03.682Z,14.15
2023-05-07T21:22:39.291Z,13.84
2023-05-07T21:25:06.112Z,13.87
2023-05-07T21:27:32.621Z,13.86
2023-05-07T21:30:04.265Z,13.58
2023-05-07T21:32:30.995Z,13.55
2023-05-07T21:34:59.071Z,13.77
2023-05-07T21:37:25.541Z,13.74
2023-05-07T21:39:52.058Z,13.68
2023-05-07T21:42:18.788Z,13.74
2023-05-07T21:44:46.178Z,13.70
2023-05-07T21:47:12.709Z,13.52
2023-05-07T21:49:41.526Z,13.61
2023-05-07T21:52:16.265Z,13.38
2023-05-07T21:54:43.494Z,13.29
2023-05-07T21:57:10.298Z,13.37
2023-05-07T21:59:43.051Z,13.30
2023-05-07T22:02:09.511Z,13.25
2023-05-07T22:04:35.975Z,13.21
2023-05-07T22:07:02.434Z,13.26
2023-05-07T22:09:28.934Z,13.16
2023-05-07T22:11:55.590Z,13.07
2023-05-07T22:14:22.094Z,13.22
2023-05-07T22:16:48.610Z,13.46
2023-05-07T22:19:15.269Z,13.12
2023-05-07T22:21:41.873Z,12.99
2023-05-07T22:24:08.403Z,12.84
2023-05-07T22:26:34.848Z,12.85
2023-05-07T22:29:10.379Z,12.78
2023-05-07T22:31:36.905Z,12.80
2023-05-07T22:34:05.422Z,12.74
2023-05-07T22:36:32.294Z,12.36
2023-05-07T22:38:59.951Z,12.64
2023-05-07T22:41:26.548Z,12.57
2023-05-07T22:43:55.156Z,12.48
2023-05-07T22:46:21.692Z,12.52
2023-05-07T22:48:48.158Z,12.47
2023-05-07T22:51:14.805Z,12.36
2023-05-07T22:53:42.279Z,12.30
2023-05-07T22:56:10.123Z,12.39
2023-05-07T22:58:42.410Z,12.39
2023-05-07T23:01:13.958Z,12.16
2023-05-07T23:03:41.080Z,12.05
2023-05-07T23:06:07.937Z,12.18
2023-05-07T23:08:35.211Z,12.15
2023-05-07T23:11:01.840Z,12.27
2023-05-07T23:13:28.437Z,12.05
2023-05-07T23:15:55.007Z,12.07
2023-05-07T23:18:24.611Z,12.00
2023-05-07T23:20:51.132Z,12.11
2023-05-07T23:23:17.811Z,11.78
2023-05-07T23:25:44.578Z,11.82
2023-05-07T23:28:11.057Z,11.66
2023-05-07T23:30:37.761Z,11.88
2023-05-07T23:33:04.348Z,11.71
2023-05-07T23:35:30.999Z,11.60
2023-05-07T23:37:58.654Z,11.68
2023-05-07T23:40:25.257Z,11.78
2023-05-07T23:42:51.789Z,11.79
2023-05-07T23:45:18.308Z,11.66
2023-05-07T23:47:44.811Z,11.62
2023-05-07T23:50:11.629Z,11.45
2023-05-07T23:52:38.339Z,11.48
2023-05-07T23:55:05.494Z,11.57
2023-05-07T23:57:32.090Z,11.52
